Time;durP1;ratioP1;P1;durP2;ratioP2;P2;SDS_P1;SDS_P2;PMS_P1;PMS_P2;Temp;Humidity;BMP_temperature;BMP_pressure;BME280_temperature;BME280_humidity;BME280_pressure;Samples;Min_cycle;Max_cycle;Signal;HPM_P1;HPM_P2
2023/07/20 00:02:05;;;;;;;7.60;4.28;;;;;;;23.25;45.24;98494.56;5065608;28;20044;-71
2023/07/20 00:04:32;;;;;;;4.72;3.70;;;;;;;23.23;45.54;98506.59;5065616;28;20094;-71
2023/07/20 00:06:58;;;;;;;6.90;4.18;;;;;;;23.26;45.23;98498.97;5047919;28;20045;-72
2023/07/20 00:09:25;;;;;;;5.45;3.67;;;;;;;23.24;44.97;98492.88;5048063;28;20054;-72
2023/07/20 00:11:54;;;;;;;7.00;4.15;;;;;;;23.17;44.65;98483.84;5065836;28;20045;-71
2023/07/20 00:14:21;;;;;;;5.85;4.15;;;;;;;23.20;45.34;98488.03;5065460;28;20315;-72
2023/07/20 00:16:55;;;;;;;6.88;4.57;;;;;;;23.24;45.25;98478.53;5065418;28;20082;-72
2023/07/20 00:19:22;;;;;;;5.57;4.25;;;;;;;23.07;44.96;98450.00;5047895;28;20048;-71
2023/07/20 00:21:49;;;;;;;5.65;3.85;;;;;;;23.20;45.02;98488.88;5044104;28;20057;-71
2023/07/20 00:24:16;;;;;;;5.53;4.13;;;;;;;23.19;45.45;98489.06;5045399;28;20037;-71
2023/07/20 00:26:43;;;;;;;5.00;4.07;;;;;;;23.09;44.32;98483.94;5045414;28;20053;-71
2023/07/20 00:29:11;;;;;;;5.10;3.60;;;;;;;23.20;45.23;98498.84;5045793;28;20045;-71
2023/07/20 00:31:38;;;;;;;5.88;4.57;;;;;;;23.21;45.21;98500.53;5045660;28;20045;-71
2023/07/20 00:34:05;;;;;;;5.15;3.47;;;;;;;22.88;44.95;98448.69;5045641;28;20095;-71
2023/07/20 00:36:32;;;;;;;5.30;3.90;;;;;;;23.13;45.06;98506.03;5045594;28;20041;-71
2023/07/20 00:38:59;;;;;;;6.13;4.28;;;;;;;22.95;45.04;98480.19;5044464;28;20080;-71
2023/07/20 00:41:29;;;;;;;4.88;4.00;;;;;;;23.13;45.88;98512.25;5045306;28;20053;-71
2023/07/20 00:43:56;;;;;;;4.93;4.03;;;;;;;23.07;45.40;98523.81;5045561;28;20049;-71
2023/07/20 00:46:25;;;;;;;6.88;4.07;;;;;;;23.07;45.93;98528.38;5044704;28;20037;-71
2023/07/20 00:48:53;;;;;;;5.25;4.65;;;;;;;23.05;46.70;98521.28;5045477;28;20076;-70
2023/07/20 00:51:21;;;;;;;5.25;3.90;;;;;;;23.04;46.70;98524.19;5044454;28;20084;-70
2023/07/20 00:53:48;;;;;;;6.65;4.40;;;;;;;23.00;47.27;98545.31;5045201;28;20037;-70
2023/07/20 00:56:15;;;;;;;7.53;3.92;;;;;;;22.96;47.37;98537.78;5044334;28;20048;-70
2023/07/20 00:58:42;;;;;;;5.38;4.03;;;;;;;23.07;47.39;98541.88;5045348;28;20045;-70
2023/07/20 01:01:09;;;;;;;8.07;4.22;;;;;;;22.94;47.80;98529.00;5047687;28;20042;-70
2023/07/20 01:03:37;;;;;;;4.35;3.38;;;;;;;22.36;47.84;98434.09;5048671;28;20072;-71
2023/07/20 01:06:14;;;;;;;4.97;3.85;;;;;;;22.96;48.27;98519.69;5048173;28;20048;-72
2023/07/20 01:08:48;;;;;;;5.90;4.70;;;;;;;22.94;48.22;98488.47;5048109;28;20046;-72
2023/07/20 01:11:23;;;;;;;6.93;5.57;;;;;;;22.64;47.87;98434.41;5049258;28;20336;-73
2023/07/20 01:13:53;;;;;;;5.55;4.43;;;;;;;23.09;47.95;98489.34;5049013;28;20166;-72
2023/07/20 01:16:20;;;;;;;5.43;4.38;;;;;;;23.09;47.61;98496.59;5049014;28;20045;-72
2023/07/20 01:18:48;;;;;;;6.72;4.63;;;;;;;23.10;47.94;98504.53;5047889;28;20073;-72
2023/07/20 01:21:22;;;;;;;7.75;4.75;;;;;;;22.68;47.35;98433.03;5054220;28;20049;-72
2023/07/20 01:24:19;;;;;;;6.60;4.82;;;;;;;23.11;47.33;98502.66;5068887;28;20041;-72
2023/07/20 01:27:26;;;;;;;6.53;4.20;;;;;;;22.53;46.69;98402.41;5068629;28;20053;-71
2023/07/20 01:30:15;;;;;;;6.53;4.18;;;;;;;23.18;47.28;98501.75;5068551;28;20044;-71
2023/07/20 01:32:48;;;;;;;4.38;3.53;;;;;;;23.16;46.87;98508.34;5051739;28;20056;-71
2023/07/20 01:35:17;;;;;;;5.35;3.92;;;;;;;22.96;46.61;98475.63;5068608;28;20082;-71
2023/07/20 01:37:47;;;;;;;4.90;3.83;;;;;;;23.12;46.60;98505.19;5050793;28;20045;-72
2023/07/20 01:40:15;;;;;;;4.85;3.63;;;;;;;22.67;46.46;98422.41;5051509;28;20037;-72
2023/07/20 01:42:46;;;;;;;5.35;4.07;;;;;;;23.16;46.24;98503.78;5050829;28;20094;-71
2023/07/20 01:45:12;;;;;;;5.55;4.25;;;;;;;22.78;46.66;98456.22;5050660;28;20069;-71
2023/07/20 01:47:39;;;;;;;6.32;3.95;;;;;;;23.10;46.85;98514.50;5068155;28;20102;-72
2023/07/20 01:50:09;;;;;;;6.15;4.00;;;;;;;21.45;46.90;98265.03;5068488;28;20041;-72
2023/07/20 01:52:36;;;;;;;10.02;4.40;;;;;;;22.89;47.68;98466.59;5050932;28;20125;-72
2023/07/20 01:55:04;;;;;;;4.40;3.40;;;;;;;23.01;47.31;98497.53;5068578;28;20041;-71
2023/07/20 01:57:31;;;;;;;5.70;4.38;;;;;;;22.97;47.54;98491.66;5051164;28;20036;-71
2023/07/20 01:59:57;;;;;;;6.15;3.75;;;;;;;23.01;47.64;98498.38;5050676;28;20041;-72
2023/07/20 02:02:27;;;;;;;6.18;3.80;;;;;;;22.79;48.07;98466.84;5068300;28;20052;-71
2023/07/20 02:04:54;;;;;;;4.85;4.07;;;;;;;22.98;47.79;98504.13;5068071;28;20048;-71
2023/07/20 02:07:22;;;;;;;5.35;4.03;;;;;;;22.93;47.74;98498.44;5068266;28;20111;-71
2023/07/20 02:09:49;;;;;;;5.60;4.07;;;;;;;22.95;48.04;98507.22;5067738;28;20044;-72
2023/07/20 02:12:16;;;;;;;5.47;3.92;;;;;;;22.68;48.43;98460.03;5067678;28;20095;-72
2023/07/20 02:14:43;;;;;;;6.45;4.13;;;;;;;22.84;47.62;98483.34;5050137;28;20045;-72
2023/07/20 02:17:10;;;;;;;5.72;4.45;;;;;;;23.04;47.67;98519.63;5050934;28;20068;-72
2023/07/20 02:19:38;;;;;;;5.47;4.18;;;;;;;22.86;47.74;98493.97;5067974;28;20053;-72
2023/07/20 02:22:06;;;;;;;5.05;3.85;;;;;;;23.01;47.89;98521.84;5046612;28;20064;-72
2023/07/20 02:24:34;;;;;;;4.80;3.80;;;;;;;23.02;48.04;98521.66;5046705;28;20041;-71
2023/07/20 02:27:01;;;;;;;5.93;4.50;;;;;;;23.00;47.33;98533.69;5047364;28;20052;-72
2023/07/20 02:29:28;;;;;;;7.15;4.55;;;;;;;22.67;48.05;98493.47;5047529;28;20045;-72
2023/07/20 02:31:54;;;;;;;7.03;4.25;;;;;;;22.88;47.83;98544.09;5047100;28;20152;-72
2023/07/20 02:34:21;;;;;;;4.55;3.60;;;;;;;22.98;47.86;98530.31;5047246;28;20087;-71
2023/07/20 02:36:48;;;;;;;5.82;3.80;;;;;;;23.05;47.46;98534.81;5046392;28;20355;-71
2023/07/20 02:39:14;;;;;;;5.75;3.78;;;;;;;22.98;47.08;98538.44;5047617;28;20069;-71
2023/07/20 02:41:42;;;;;;;5.63;3.88;;;;;;;23.01;47.10;98543.47;5047469;28;20078;-70
2023/07/20 02:44:09;;;;;;;5.53;3.78;;;;;;;22.95;47.47;98545.03;5046504;28;20091;-71
2023/07/20 02:46:36;;;;;;;5.13;3.75;;;;;;;22.80;47.44;98535.22;5047182;28;20048;-71
2023/07/20 02:49:03;;;;;;;4.80;3.58;;;;;;;22.75;47.12;98540.31;5047112;28;20051;-71
2023/07/20 02:51:30;;;;;;;5.90;3.97;;;;;;;22.90;47.67;98573.63;5047266;28;20052;-71
2023/07/20 02:53:56;;;;;;;6.57;4.38;;;;;;;22.73;48.22;98568.34;5047205;28;20293;-70
2023/07/20 02:56:24;;;;;;;4.35;3.72;;;;;;;22.69;48.58;98577.84;5047100;28;20174;-71
2023/07/20 02:58:52;;;;;;;5.88;3.75;;;;;;;22.67;48.59;98574.47;5046972;28;20053;-71
2023/07/20 03:01:18;;;;;;;5.82;4.32;;;;;;;22.73;48.61;98573.75;5046203;28;20047;-71
2023/07/20 03:03:46;;;;;;;5.95;3.88;;;;;;;22.62;48.85;98573.34;5046991;28;20047;-71
2023/07/20 03:06:14;;;;;;;4.78;3.92;;;;;;;22.49;49.18;98560.41;5045917;28;20049;-71
2023/07/20 03:08:46;;;;;;;5.30;4.00;;;;;;;22.60;49.07;98583.47;5046765;28;20033;-71
2023/07/20 03:11:13;;;;;;;7.63;4.32;;;;;;;22.66;48.83;98589.00;5045780;28;20316;-71
2023/07/20 03:13:40;;;;;;;6.22;4.35;;;;;;;22.53;49.38;98588.72;5045642;28;20041;-71
2023/07/20 03:16:10;;;;;;;7.30;4.32;;;;;;;22.05;49.33;98522.38;5045772;28;20041;-71
2023/07/20 03:18:37;;;;;;;5.50;4.03;;;;;;;22.53;49.07;98615.72;5046764;28;20069;-71
2023/07/20 03:21:04;;;;;;;5.53;3.90;;;;;;;22.52;49.32;98615.91;5050181;28;20076;-72
2023/07/20 03:23:31;;;;;;;6.50;3.90;;;;;;;22.44;49.37;98615.97;5048367;28;20094;-71
2023/07/20 03:25:57;;;;;;;4.53;3.72;;;;;;;22.46;48.81;98609.34;5066530;28;20068;-71
2023/07/20 03:28:24;;;;;;;8.15;4.13;;;;;;;22.42;49.14;98608.88;5066427;28;20173;-71
2023/07/20 03:30:54;;;;;;;5.25;3.63;;;;;;;22.38;48.87;98612.06;5066445;28;20045;-71
2023/07/20 03:33:22;;;;;;;4.95;3.63;;;;;;;22.40;48.93;98623.53;5066719;28;20200;-71
2023/07/20 03:35:49;;;;;;;5.40;3.67;;;;;;;22.47;48.69;98631.81;5066511;28;20051;-71
2023/07/20 03:38:16;;;;;;;5.35;3.35;;;;;;;22.37;48.89;98629.28;5066285;28;20045;-71
2023/07/20 03:40:50;;;;;;;6.70;3.97;;;;;;;22.48;48.52;98639.72;5048377;28;20350;-71
2023/07/20 03:43:16;;;;;;;;;;;;;;;22.37;48.89;98640.09;5066763;28;20304;-71
2023/07/20 03:45:43;;;;;;;5.18;3.90;;;;;;;22.38;49.00;98637.22;5065932;28;19916;-71
2023/07/20 03:48:10;;;;;;;6.72;3.90;;;;;;;22.16;49.39;98616.41;5066128;28;20235;-71
2023/07/20 03:50:39;;;;;;;7.45;3.72;;;;;;;22.38;48.90;98634.50;5066038;28;20044;-70
2023/07/20 03:53:05;;;;;;;4.85;3.72;;;;;;;22.35;49.27;98626.78;5066255;28;20053;-70
2023/07/20 03:55:32;;;;;;;4.00;3.20;;;;;;;22.38;49.02;98642.63;5065971;28;20041;-71
2023/07/20 03:57:58;;;;;;;6.50;3.85;;;;;;;22.44;48.97;98635.69;5065968;28;20045;-71
2023/07/20 04:00:26;;;;;;;4.78;3.83;;;;;;;22.26;49.09;98611.63;5049069;28;20045;-71
2023/07/20 04:02:53;;;;;;;6.53;4.10;;;;;;;22.36;49.26;98644.66;5066482;28;20286;-71
2023/07/20 04:05:20;;;;;;;5.05;3.63;;;;;;;22.40;49.63;98642.44;5066170;28;20041;-71
2023/07/20 04:07:49;;;;;;;6.10;4.40;;;;;;;22.42;49.34;98648.53;5065619;28;20200;-71
2023/07/20 04:10:15;;;;;;;5.20;4.10;;;;;;;22.37;49.39;98653.59;5065886;28;20094;-71
2023/07/20 04:12:43;;;;;;;5.03;3.78;;;;;;;22.37;49.44;98657.13;5065519;28;20346;-71
2023/07/20 04:15:10;;;;;;;5.30;4.22;;;;;;;22.21;49.59;98635.63;5065723;28;20284;-71
2023/07/20 04:17:37;;;;;;;4.80;3.65;;;;;;;21.93;49.27;98600.16;5065538;28;20045;-71
2023/07/20 04:20:05;;;;;;;5.32;3.88;;;;;;;22.37;49.79;98673.31;5048513;28;20327;-71
2023/07/20 04:22:32;;;;;;;9.70;3.53;;;;;;;21.97;49.98;98614.97;5065342;28;20069;-70
2023/07/20 04:25:00;;;;;;;4.97;3.72;;;;;;;22.34;50.11;98676.38;5065769;28;20041;-71
2023/07/20 04:27:27;;;;;;;4.97;4.20;;;;;;;22.45;50.33;98680.56;5065642;28;20044;-71
2023/07/20 04:29:54;;;;;;;5.30;3.97;;;;;;;22.36;50.17;98682.44;5048140;28;20095;-71
2023/07/20 04:32:21;;;;;;;4.90;3.25;;;;;;;22.33;50.63;98688.19;5065575;28;20351;-71
2023/07/20 04:34:47;;;;;;;5.63;4.05;;;;;;;22.31;50.65;98683.97;5049985;28;20044;-71
2023/07/20 04:37:15;;;;;;;5.50;3.50;;;;;;;22.31;50.62;98692.09;5069980;28;20204;-71
2023/07/20 04:39:41;;;;;;;6.88;3.85;;;;;;;22.34;50.62;98689.03;5069479;28;20061;-70
2023/07/20 04:42:10;;;;;;;4.85;3.78;;;;;;;22.35;51.22;98688.84;5069883;28;20048;-71
2023/07/20 04:44:36;;;;;;;6.95;4.28;;;;;;;22.21;50.57;98657.22;5069602;28;20079;-71
2023/07/20 04:47:03;;;;;;;4.95;3.92;;;;;;;22.29;51.07;98678.75;5069213;28;20045;-71
2023/07/20 04:49:30;;;;;;;6.25;4.63;;;;;;;21.98;51.47;98627.44;5051680;28;20044;-71
2023/07/20 04:51:57;;;;;;;4.55;3.63;;;;;;;22.30;51.14;98685.00;5035593;28;20083;-71
2023/07/20 04:54:23;;;;;;;6.97;4.07;;;;;;;22.38;51.08;98682.25;5070077;28;20067;-71
2023/07/20 04:56:50;;;;;;;5.75;4.05;;;;;;;22.30;51.46;98683.13;5070207;28;20047;-71
2023/07/20 04:59:18;;;;;;;5.53;3.95;;;;;;;22.21;51.65;98694.16;5070278;28;20059;-71
2023/07/20 05:01:45;;;;;;;7.10;3.90;;;;;;;22.23;51.84;98684.84;5070037;28;20044;-71
2023/07/20 05:04:12;;;;;;;6.47;4.30;;;;;;;22.32;51.30;98688.38;5069904;28;20041;-71
2023/07/20 05:06:39;;;;;;;5.18;3.80;;;;;;;22.35;51.52;98688.00;5069610;28;20053;-71
2023/07/20 05:09:06;;;;;;;5.35;4.13;;;;;;;22.23;51.56;98668.66;5069140;28;20044;-71
2023/07/20 05:11:33;;;;;;;4.95;3.88;;;;;;;22.29;51.71;98686.84;5069251;28;20062;-70
2023/07/20 05:14:00;;;;;;;5.55;3.38;;;;;;;22.32;51.66;98693.75;5069293;28;20059;-70
2023/07/20 05:16:28;;;;;;;4.75;3.53;;;;;;;22.09;51.69;98637.84;5068949;28;20227;-70
2023/07/20 05:18:57;;;;;;;5.38;3.33;;;;;;;22.30;52.00;98699.34;5068574;28;20044;-69
2023/07/20 05:21:24;;;;;;;5.63;4.50;;;;;;;22.33;51.96;98703.53;5068419;28;20060;-70
2023/07/20 05:23:50;;;;;;;5.40;4.03;;;;;;;22.44;51.67;98703.19;5069104;28;20049;-69
2023/07/20 05:26:17;;;;;;;5.47;3.90;;;;;;;22.25;52.03;98681.97;5052093;28;20041;-70
2023/07/20 05:28:44;;;;;;;5.35;3.88;;;;;;;22.29;51.76;98681.47;5068326;28;20083;-70
2023/07/20 05:31:11;;;;;;;6.57;3.90;;;;;;;22.53;51.34;98706.69;5051527;28;20041;-71
2023/07/20 05:33:39;;;;;;;6.38;4.50;;;;;;;22.41;51.92;98698.16;5068583;28;20346;-70
2023/07/20 05:36:06;;;;;;;5.63;3.80;;;;;;;22.25;51.87;98676.59;5068404;28;20178;-70
2023/07/20 05:38:32;;;;;;;4.85;4.00;;;;;;;22.47;52.04;98696.59;5051218;28;20049;-71
2023/07/20 05:41:01;;;;;;;9.60;4.38;;;;;;;22.51;52.08;98703.31;5068256;28;20047;-70
2023/07/20 05:43:28;;;;;;;4.30;3.42;;;;;;;22.51;51.91;98706.88;5034494;28;20048;-70
2023/07/20 05:45:55;;;;;;;8.57;4.00;;;;;;;22.49;51.72;98710.75;5067979;28;20049;-70
2023/07/20 05:48:21;;;;;;;5.55;3.90;;;;;;;22.51;51.69;98712.28;5050504;28;20041;-71
2023/07/20 05:50:50;;;;;;;6.50;4.40;;;;;;;22.41;51.53;98682.78;5050515;28;20040;-71
2023/07/20 05:53:17;;;;;;;6.05;4.22;;;;;;;22.53;51.52;98710.25;5068046;28;20362;-71
2023/07/20 05:55:43;;;;;;;4.53;3.90;;;;;;;22.57;51.19;98716.16;5068424;28;20095;-71
2023/07/20 05:58:10;;;;;;;5.63;3.75;;;;;;;22.63;51.50;98710.88;5067947;28;20044;-71
2023/07/20 06:00:37;;;;;;;5.53;3.97;;;;;;;22.66;51.63;98710.53;5050407;28;20087;-72
2023/07/20 06:03:04;;;;;;;4.75;4.10;;;;;;;22.27;51.37;98645.72;5067957;28;20045;-70
2023/07/20 06:05:31;;;;;;;7.22;4.32;;;;;;;22.62;51.04;98714.63;5067836;28;20047;-71
2023/07/20 06:08:00;;;;;;;5.75;3.88;;;;;;;22.70;50.76;98716.44;5068094;28;20065;-71
2023/07/20 06:10:27;;;;;;;5.93;3.83;;;;;;;22.67;50.88;98716.78;5068226;28;20115;-71
2023/07/20 06:12:54;;;;;;;4.50;3.30;;;;;;;22.68;50.56;98710.38;5050478;28;20311;-71
2023/07/20 06:15:28;;;;;;;5.25;3.75;;;;;;;22.75;50.79;98711.34;5050915;28;20220;-71
2023/07/20 06:17:56;;;;;;;7.38;4.70;;;;;;;22.77;50.64;98706.59;5067554;28;20041;-70
2023/07/20 06:20:23;;;;;;;6.38;4.25;;;;;;;22.77;50.22;98709.28;5068049;28;20068;-71
2023/07/20 06:22:51;;;;;;;6.75;3.88;;;;;;;22.91;50.77;98715.78;5067399;28;20072;-71
2023/07/20 06:25:20;;;;;;;5.07;3.60;;;;;;;22.82;49.91;98715.00;5050277;28;20041;-70
2023/07/20 06:27:47;;;;;;;5.07;4.07;;;;;;;22.88;49.80;98708.88;5050478;28;20045;-70
2023/07/20 06:30:14;;;;;;;5.38;4.15;;;;;;;22.57;49.54;98665.69;5067499;28;20040;-71
2023/07/20 06:32:40;;;;;;;4.55;3.47;;;;;;;22.93;49.85;98717.31;5067590;28;20044;-71
2023/07/20 06:35:08;;;;;;;5.60;3.83;;;;;;;22.95;49.65;98715.25;5050528;28;20083;-72
2023/07/20 06:37:35;;;;;;;4.80;3.47;;;;;;;22.77;49.73;98697.66;5067520;28;20129;-72
2023/07/20 06:40:03;;;;;;;7.38;3.70;;;;;;;22.94;49.82;98732.50;5049658;28;20045;-72
2023/07/20 06:42:31;;;;;;;5.18;3.60;;;;;;;23.03;50.08;98727.88;5050022;28;20064;-70
2023/07/20 06:44:58;;;;;;;5.60;3.40;;;;;;;23.10;50.01;98728.84;5067601;28;20269;-70
2023/07/20 06:47:25;;;;;;;5.78;3.20;;;;;;;23.20;49.85;98726.75;5049841;28;20048;-69
2023/07/20 06:49:53;;;;;;;10.00;4.68;;;;;;;23.12;49.09;98693.53;5049739;28;20056;-70
2023/07/20 06:52:19;;;;;;;5.68;4.05;;;;;;;23.27;49.41;98722.31;5066782;28;20045;-70
2023/07/20 06:54:46;;;;;;;3.78;3.15;;;;;;;23.20;49.68;98713.22;5066943;28;20045;-69
2023/07/20 06:57:13;;;;;;;4.47;3.85;;;;;;;23.48;49.32;98726.22;5065820;28;20092;-70
2023/07/20 06:59:41;;;;;;;4.97;3.53;;;;;;;23.34;49.05;98715.19;5066704;28;20304;-72
2023/07/20 07:02:08;;;;;;;6.57;3.88;;;;;;;23.30;48.83;98713.00;5067445;28;20231;-72
2023/07/20 07:04:35;;;;;;;5.90;3.65;;;;;;;23.35;48.65;98724.97;5049685;28;20205;-72
2023/07/20 07:07:02;;;;;;;5.07;3.70;;;;;;;23.30;48.37;98718.44;5066875;28;20174;-72
2023/07/20 07:09:29;;;;;;;5.43;3.78;;;;;;;23.31;48.72;98720.09;5066699;28;20045;-72
2023/07/20 07:11:56;;;;;;;4.20;3.20;;;;;;;23.46;49.22;98722.84;5066521;28;20098;-72
2023/07/20 07:14:22;;;;;;;4.93;4.10;;;;;;;23.66;48.40;98715.91;5049969;28;20037;-72
2023/07/20 07:16:50;;;;;;;6.07;4.53;;;;;;;23.82;48.41;98714.91;5048811;28;20381;-71
2023/07/20 07:19:18;;;;;;;5.82;4.50;;;;;;;24.10;48.08;98718.72;5066219;28;20297;-72
2023/07/20 07:21:45;;;;;;;6.47;3.50;;;;;;;24.04;47.14;98702.38;5065463;28;20255;-72
2023/07/20 07:24:12;;;;;;;5.20;2.70;;;;;;;24.16;47.26;98703.59;5065847;28;20049;-72
2023/07/20 07:26:39;;;;;;;7.07;4.15;;;;;;;24.12;47.04;98704.97;5049512;28;20048;-72
2023/07/20 07:29:05;;;;;;;5.50;4.45;;;;;;;24.25;46.92;98708.72;5067077;28;20041;-72
2023/07/20 07:31:35;;;;;;;5.40;4.18;;;;;;;24.05;46.88;98718.44;5066825;28;20045;-72
2023/07/20 07:34:04;;;;;;;6.80;4.22;;;;;;;23.84;47.55;98715.56;5048927;28;20204;-72
2023/07/20 07:36:31;;;;;;;4.47;3.50;;;;;;;24.03;47.40;98725.06;5048824;28;20041;-72
2023/07/20 07:38:58;;;;;;;6.43;4.05;;;;;;;24.00;47.54;98715.44;5066377;28;20052;-72
2023/07/20 07:41:24;;;;;;;6.22;3.72;;;;;;;24.07;47.56;98705.53;5067196;28;20052;-70
2023/07/20 07:43:52;;;;;;;6.40;4.30;;;;;;;24.28;47.79;98716.47;5049140;28;20195;-71
2023/07/20 07:46:21;;;;;;;6.28;4.07;;;;;;;24.47;47.04;98704.22;5066380;28;20052;-71
2023/07/20 07:48:47;;;;;;;7.68;4.00;;;;;;;24.66;47.23;98705.53;5048307;28;20057;-71
2023/07/20 07:51:15;;;;;;;7.78;4.10;;;;;;;24.86;46.70;98712.00;5065916;28;20041;-71
2023/07/20 07:53:43;;;;;;;6.45;4.07;;;;;;;24.85;46.20;98706.78;5065819;28;20102;-71
2023/07/20 07:56:10;;;;;;;6.38;4.30;;;;;;;24.85;46.67;98710.34;5065696;28;20068;-70
2023/07/20 07:58:37;;;;;;;5.20;3.42;;;;;;;24.96;46.31;98707.13;5048179;28;20334;-70
2023/07/20 08:01:04;;;;;;;5.93;4.10;;;;;;;24.97;46.19;98716.09;5065513;28;20041;-71
2023/07/20 08:03:30;;;;;;;5.22;4.05;;;;;;;25.12;46.00;98708.78;5048140;28;20053;-71
2023/07/20 08:05:58;;;;;;;6.70;3.88;;;;;;;25.03;45.99;98703.66;5065883;28;20091;-71
2023/07/20 08:08:27;;;;;;;5.15;3.85;;;;;;;24.90;45.45;98705.19;5065391;28;20041;-71
2023/07/20 08:10:54;;;;;;;4.35;3.55;;;;;;;24.92;46.08;98710.41;5049076;28;20195;-71
2023/07/20 08:13:21;;;;;;;5.22;3.90;;;;;;;24.99;45.41;98680.66;5049213;28;20058;-71
2023/07/20 08:15:51;;;;;;;6.85;3.80;;;;;;;25.27;44.63;98706.00;5065581;28;20048;-71
2023/07/20 08:18:18;;;;;;;5.28;4.20;;;;;;;25.44;44.18;98664.03;5047884;28;20120;-71
2023/07/20 08:20:45;;;;;;;5.75;3.90;;;;;;;25.36;43.54;98677.75;5065685;28;20044;-71
2023/07/20 08:23:12;;;;;;;5.90;3.65;;;;;;;25.35;43.59;98699.63;5065302;28;20069;-71
2023/07/20 08:25:43;;;;;;;5.00;3.17;;;;;;;25.13;43.74;98694.19;5048563;28;20041;-70
2023/07/20 08:28:11;;;;;;;4.25;3.40;;;;;;;24.75;44.23;98658.31;5065409;28;20205;-72
2023/07/20 08:30:43;;;;;;;4.43;3.45;;;;;;;24.94;44.56;98700.22;5047970;28;20045;-72
2023/07/20 08:33:10;;;;;;;4.47;3.30;;;;;;;24.93;45.10;98691.25;5065189;28;20048;-72
2023/07/20 08:35:38;;;;;;;5.72;4.38;;;;;;;24.99;44.78;98699.63;5065383;28;20045;-71
2023/07/20 08:38:05;;;;;;;8.48;4.30;;;;;;;24.76;44.74;98659.16;5065765;28;20044;-72
2023/07/20 08:40:32;;;;;;;6.45;4.05;;;;;;;25.04;45.40;98702.63;5065219;28;20174;-72
2023/07/20 08:43:01;;;;;;;5.22;3.92;;;;;;;24.98;45.05;98715.06;5064871;28;20300;-72
2023/07/20 08:45:29;;;;;;;10.52;9.05;;;;;;;24.99;45.28;98705.91;5065336;28;20052;-71
2023/07/20 08:47:58;;;;;;;10.85;8.57;;;;;;;24.41;44.72;98620.19;5065221;28;20114;-71
2023/07/20 08:50:28;;;;;;;9.85;5.75;;;;;;;24.98;45.30;98697.97;5065416;28;20040;-72
2023/07/20 08:52:58;;;;;;;7.68;4.88;;;;;;;25.02;45.33;98699.28;5065141;28;20045;-72
2023/07/20 08:55:26;;;;;;;5.75;4.47;;;;;;;24.63;46.01;98649.81;5047427;28;20155;-72
2023/07/20 08:57:55;;;;;;;7.25;4.95;;;;;;;24.95;46.15;98713.56;5065277;28;20099;-72
2023/07/20 09:00:26;;;;;;;6.15;4.35;;;;;;;24.94;45.40;98709.19;5047556;28;20120;-72
2023/07/20 09:02:54;;;;;;;7.07;3.92;;;;;;;24.73;45.67;98670.38;5047481;28;20049;-71
2023/07/20 09:05:23;;;;;;;7.22;3.78;;;;;;;24.98;45.62;98715.06;5047555;28;20096;-71
2023/07/20 09:07:50;;;;;;;12.05;7.85;;;;;;;24.88;44.81;98677.44;5064941;28;20041;-71
2023/07/20 09:10:17;;;;;;;10.98;6.47;;;;;;;25.24;44.96;98696.38;5047488;28;20330;-72
2023/07/20 09:12:44;;;;;;;5.15;4.45;;;;;;;25.41;43.93;98699.69;5065467;28;20056;-71
2023/07/20 09:15:12;;;;;;;6.32;4.18;;;;;;;25.54;42.93;98666.41;5065067;28;20102;-72
2023/07/20 09:17:46;;;;;;;6.55;3.72;;;;;;;25.53;42.63;98691.88;5047215;28;20037;-72
2023/07/20 09:20:13;;;;;;;11.50;4.07;;;;;;;25.45;43.51;98702.84;5047575;28;20083;-72
2023/07/20 09:22:40;;;;;;;6.20;3.55;;;;;;;25.37;43.22;98698.41;5068911;28;20111;-72
2023/07/20 09:25:08;;;;;;;5.63;3.78;;;;;;;25.20;43.39;98707.81;5068776;28;20224;-71
2023/07/20 09:27:40;;;;;;;7.15;3.78;;;;;;;25.21;44.61;98706.78;5069011;28;20069;-71
2023/07/20 09:30:09;;;;;;;5.63;4.13;;;;;;;25.31;44.03;98703.75;5068551;28;20053;-71
2023/07/20 09:32:41;;;;;;;8.25;4.00;;;;;;;25.18;43.97;98689.03;5050901;28;20319;-71
2023/07/20 09:35:13;;;;;;;7.03;4.10;;;;;;;25.32;44.02;98703.56;5068515;28;20115;-70
2023/07/20 09:37:40;;;;;;;4.55;2.80;;;;;;;25.30;44.09;98712.91;5050893;28;20040;-71
2023/07/20 09:40:09;;;;;;;4.82;3.50;;;;;;;25.27;44.52;98712.25;5051063;28;20103;-71
2023/07/20 09:42:37;;;;;;;6.63;4.45;;;;;;;25.31;44.20;98706.44;5067892;28;20045;-71
2023/07/20 09:45:07;;;;;;;4.82;3.05;;;;;;;25.16;42.97;98698.38;5051014;28;20041;-70
2023/07/20 09:47:37;;;;;;;7.32;3.00;;;;;;;25.10;42.17;98710.00;5068089;28;20232;-71
2023/07/20 09:50:10;;;;;;;3.70;2.88;;;;;;;25.03;43.13;98684.69;5068278;28;20071;-71
2023/07/20 09:52:39;;;;;;;4.93;3.53;;;;;;;25.03;43.19;98718.06;5068599;28;20280;-70
2023/07/20 09:55:07;;;;;;;6.30;3.63;;;;;;;24.91;42.55;98712.28;5067971;28;20087;-71
2023/07/20 09:57:34;;;;;;;5.30;3.05;;;;;;;25.00;43.79;98707.56;5068491;28;20109;-71
2023/07/20 10:00:03;;;;;;;6.07;3.88;;;;;;;25.13;43.42;98705.03;5068182;28;20041;-71
2023/07/20 10:02:34;;;;;;;5.18;3.17;;;;;;;25.16;42.53;98707.34;5050319;28;20202;-71
2023/07/20 10:05:05;;;;;;;5.10;3.17;;;;;;;25.25;43.08;98708.06;5050809;28;20036;-71
2023/07/20 10:07:36;;;;;;;5.40;4.05;;;;;;;25.39;41.87;98720.75;5067785;28;20033;-71
2023/07/20 10:10:05;;;;;;;5.55;3.20;;;;;;;25.31;41.80;98710.00;5067599;28;20044;-71
2023/07/20 10:12:33;;;;;;;4.50;3.20;;;;;;;25.15;42.16;98686.69;5050208;28;20044;-71
2023/07/20 10:15:13;;;;;;;6.22;3.53;;;;;;;25.38;41.81;98704.66;5068210;28;20041;-72
2023/07/20 10:17:49;;;;;;;5.22;3.17;;;;;;;25.15;41.44;98688.56;5067754;28;20055;-70
2023/07/20 10:20:21;;;;;;;5.05;2.55;;;;;;;25.49;41.56;98717.72;5050107;28;20041;-72
2023/07/20 10:22:54;;;;;;;4.25;2.97;;;;;;;25.36;40.77;98699.44;5050157;28;20041;-72
2023/07/20 10:25:23;;;;;;;5.00;2.78;;;;;;;25.24;40.70;98687.41;5067812;28;20111;-71
2023/07/20 10:27:50;;;;;;;5.25;3.10;;;;;;;24.98;40.24;98619.34;5067485;28;20040;-71
2023/07/20 10:30:18;;;;;;;5.93;3.08;;;;;;;25.41;40.39;98705.13;5067784;28;20037;-71
2023/07/20 10:32:57;;;;;;;5.47;3.45;;;;;;;25.37;40.17;98698.41;5066186;28;20318;-72
2023/07/20 10:35:24;;;;;;;5.70;3.20;;;;;;;25.48;40.20;98695.16;5067076;28;20052;-71
2023/07/20 10:37:53;;;;;;;3.92;3.00;;;;;;;25.58;40.00;98681.25;5050433;28;20037;-72
2023/07/20 10:40:32;;;;;;;7.75;3.50;;;;;;;25.77;39.68;98691.44;5067170;28;20293;-70
2023/07/20 10:43:04;;;;;;;5.30;2.72;;;;;;;25.72;39.70;98671.34;5049567;28;20040;-71
2023/07/20 10:45:40;;;;;;;5.72;3.72;;;;;;;26.05;39.51;98698.75;5066976;28;20041;-71
2023/07/20 10:48:14;;;;;;;7.95;3.20;;;;;;;25.99;39.52;98684.09;5066653;28;20305;-72
2023/07/20 10:50:42;;;;;;;15.63;4.07;;;;;;;26.10;39.60;98688.13;5066735;28;20040;-71
2023/07/20 10:53:15;;;;;;;4.20;2.95;;;;;;;26.17;38.32;98687.13;5066943;28;20053;-70
2023/07/20 10:55:43;;;;;;;4.20;2.70;;;;;;;26.16;37.96;98690.88;5067065;28;20048;-70
2023/07/20 10:58:12;;;;;;;4.03;2.70;;;;;;;26.05;38.35;98626.28;5066860;28;20066;-71
2023/07/20 11:00:55;;;;;;;4.72;2.70;;;;;;;26.33;37.52;98666.94;5066969;28;20099;-70
2023/07/20 11:03:28;;;;;;;6.63;2.80;;;;;;;26.50;37.52;98676.41;5066633;28;20312;-71
2023/07/20 11:05:54;;;;;;;6.22;3.30;;;;;;;26.59;37.02;98668.91;5066758;28;20044;-71
2023/07/20 11:08:41;;;;;;;5.07;3.88;;;;;;;26.78;37.21;98660.03;5066496;28;20044;-70
2023/07/20 11:11:24;;;;;;;5.20;3.45;;;;;;;26.51;37.20;98642.78;5066286;28;20048;-71
2023/07/20 11:13:55;;;;;;;4.90;3.58;;;;;;;26.69;37.27;98665.84;5066607;28;20108;-71
2023/07/20 11:16:34;;;;;;;3.70;2.53;;;;;;;26.65;37.37;98670.84;5066574;28;20358;-71
2023/07/20 11:19:00;;;;;;;4.13;2.47;;;;;;;26.29;36.29;98602.34;5066528;28;20235;-71
2023/07/20 11:21:27;;;;;;;3.75;2.53;;;;;;;26.72;36.42;98665.44;5066072;28;20040;-71
2023/07/20 11:23:56;;;;;;;3.53;2.40;;;;;;;26.69;35.90;98649.53;5048943;28;20060;-71
2023/07/20 11:26:23;;;;;;;3.60;2.40;;;;;;;26.69;36.93;98671.28;5066178;28;20190;-69
2023/07/20 11:28:51;;;;;;;3.88;2.30;;;;;;;26.68;37.15;98656.84;5066161;28;20254;-70
2023/07/20 11:31:18;;;;;;;4.82;2.33;;;;;;;26.77;36.87;98655.63;5066308;28;20044;-70
2023/07/20 11:33:45;;;;;;;5.30;2.38;;;;;;;26.74;36.81;98663.34;5066812;28;20045;-70
2023/07/20 11:36:12;;;;;;;4.10;2.35;;;;;;;26.69;36.93;98655.81;5065832;28;20093;-70
2023/07/20 11:38:40;;;;;;;4.32;2.60;;;;;;;26.69;37.06;98644.94;5066213;28;20045;-70
2023/07/20 11:41:08;;;;;;;6.60;3.00;;;;;;;26.67;36.61;98616.28;5066385;28;20346;-70